createdAt,value
2022-09-12T00:06:18.112Z,22.35
2022-09-12T00:08:56.381Z,22.32
2022-09-12T00:11:30.607Z,22.43
2022-09-12T00:16:36.035Z,22.59
2022-09-12T00:19:06.615Z,22.51
2022-09-12T00:21:38.290Z,22.41
2022-09-12T00:24:08.693Z,22.41
2022-09-12T00:26:38.057Z,22.72
2022-09-12T00:29:12.040Z,22.52
2022-09-12T00:31:43.122Z,22.51
2022-09-12T00:34:16.774Z,22.48
2022-09-12T00:36:56.707Z,22.56
2022-09-12T00:39:28.783Z,22.62
2022-09-12T00:42:15.303Z,22.39
2022-09-12T00:44:53.971Z,22.49
2022-09-12T00:47:30.579Z,22.54
2022-09-12T00:50:10.712Z,22.56
2022-09-12T00:52:55.595Z,22.51
2022-09-12T00:55:35.294Z,22.54
2022-09-12T00:58:28.373Z,22.52
2022-09-12T01:01:02.724Z,22.43
2022-09-12T01:03:32.774Z,22.36
2022-09-12T01:06:17.161Z,22.36
2022-09-12T01:08:52.337Z,22.36
2022-09-12T01:11:24.086Z,22.11
2022-09-12T01:13:53.597Z,22.28
2022-09-12T01:16:25.753Z,22.42
2022-09-12T01:19:29.067Z,22.40
2022-09-12T01:22:32.219Z,21.98
2022-09-12T01:25:08.064Z,22.28
2022-09-12T01:28:04.743Z,22.11
2022-09-12T01:31:18.085Z,21.86
2022-09-12T01:34:07.724Z,22.10
2022-09-12T01:36:43.275Z,22.11
2022-09-12T01:39:22.332Z,22.36
2022-09-12T01:42:32.704Z,22.38
2022-09-12T01:45:18.260Z,22.33
2022-09-12T01:48:36.775Z,22.34
2022-09-12T01:51:19.235Z,21.75
2022-09-12T01:54:14.923Z,21.84
2022-09-12T01:56:48.716Z,21.88
2022-09-12T01:59:42.330Z,22.18
2022-09-12T02:02:50.019Z,21.76
2022-09-12T02:05:23.820Z,21.99
2022-09-12T02:08:05.959Z,21.85
2022-09-12T02:10:44.910Z,21.97
2022-09-12T02:13:32.360Z,21.95
2022-09-12T02:16:11.569Z,21.80
2022-09-12T02:18:47.174Z,21.81
2022-09-12T02:21:20.008Z,21.92
2022-09-12T02:23:55.351Z,21.86
2022-09-12T02:26:39.128Z,21.77
2022-09-12T02:29:08.457Z,21.76
2022-09-12T02:32:01.987Z,21.52
2022-09-12T02:34:40.726Z,21.63
2022-09-12T02:37:28.572Z,21.67
2022-09-12T02:40:03.264Z,21.49
2022-09-12T02:42:32.772Z,21.46
2022-09-12T02:45:03.147Z,21.51
2022-09-12T02:47:51.166Z,21.47
2022-09-12T02:50:20.766Z,21.31
2022-09-12T02:52:50.224Z,21.42
2022-09-12T02:55:19.694Z,21.52
2022-09-12T02:57:48.875Z,21.35
2022-09-12T03:00:18.197Z,21.23
2022-09-12T03:03:08.486Z,21.31
2022-09-12T03:06:03.045Z,21.19
2022-09-12T03:08:52.236Z,21.07
2022-09-12T03:11:54.056Z,21.00
2022-09-12T03:14:31.399Z,21.19
2022-09-12T03:17:20.299Z,21.03
2022-09-12T03:19:56.524Z,21.02
2022-09-12T03:22:25.761Z,21.11
2022-09-12T03:25:04.025Z,20.93
2022-09-12T03:27:40.645Z,20.75
2022-09-12T03:30:11.827Z,21.08
2022-09-12T03:32:53.134Z,21.03
2022-09-12T03:35:25.668Z,20.82
2022-09-12T03:37:55.024Z,20.87
2022-09-12T03:40:24.683Z,20.92
2022-09-12T03:42:54.035Z,20.83
2022-09-12T03:45:23.398Z,20.95
2022-09-12T03:47:52.492Z,20.93
2022-09-12T03:50:21.887Z,20.98
2022-09-12T03:52:51.405Z,21.01
2022-09-12T03:55:20.625Z,20.69
2022-09-12T03:57:49.785Z,20.75
2022-09-12T04:00:19.940Z,20.79
2022-09-12T04:02:49.348Z,20.92
2022-09-12T04:05:18.408Z,20.90
2022-09-12T04:07:51.319Z,20.96
2022-09-12T04:10:35.376Z,20.86
2022-09-12T04:13:19.581Z,20.84
2022-09-12T04:16:03.367Z,20.76
2022-09-12T04:18:33.219Z,20.76
2022-09-12T04:21:12.626Z,20.68
2022-09-12T04:23:42.185Z,20.58
2022-09-12T04:26:14.486Z,20.66
2022-09-12T04:28:44.178Z,20.67
2022-09-12T04:31:21.661Z,20.66
2022-09-12T04:33:58.997Z,20.43
2022-09-12T04:36:32.076Z,20.42
2022-09-12T04:39:03.019Z,20.31
2022-09-12T04:41:35.363Z,20.46
2022-09-12T04:44:08.366Z,20.58
2022-09-12T04:46:39.761Z,20.49
2022-09-12T04:49:11.227Z,20.34
2022-09-12T04:51:42.781Z,20.33
2022-09-12T04:54:19.887Z,20.25
2022-09-12T04:56:51.873Z,20.05
2022-09-12T04:59:22.986Z,20.13
2022-09-12T05:01:52.985Z,20.11
2022-09-12T05:04:22.478Z,20.31
2022-09-12T05:06:51.839Z,20.33
2022-09-12T05:09:24.398Z,20.28
2022-09-12T05:12:04.923Z,20.32
2022-09-12T05:14:35.739Z,20.22
2022-09-12T05:17:06.928Z,20.12
2022-09-12T05:19:36.359Z,20.10
2022-09-12T05:22:07.585Z,20.02
2022-09-12T05:24:38.773Z,19.91
2022-09-12T05:27:08.324Z,19.89
2022-09-12T05:29:37.442Z,20.00
2022-09-12T05:32:06.794Z,19.81
2022-09-12T05:34:35.961Z,19.81
2022-09-12T05:37:05.296Z,19.89
2022-09-12T05:39:34.742Z,19.80
2022-09-12T05:42:07.452Z,19.74
2022-09-12T05:44:36.545Z,19.77
2022-09-12T05:47:05.785Z,19.69
2022-09-12T05:49:37.164Z,19.74
2022-09-12T05:52:06.386Z,19.74
2022-09-12T05:54:35.562Z,19.56
2022-09-12T05:57:04.780Z,19.47
2022-09-12T05:59:33.905Z,19.50
2022-09-12T06:02:06.646Z,19.50
2022-09-12T06:04:43.129Z,19.43
2022-09-12T06:07:12.809Z,19.56
2022-09-12T06:09:45.155Z,19.52
2022-09-12T06:12:14.693Z,19.54
2022-09-12T06:14:44.401Z,19.58
2022-09-12T06:17:13.753Z,19.47
2022-09-12T06:19:43.517Z,19.11
2022-09-12T06:22:12.978Z,19.09
2022-09-12T06:24:42.291Z,19.09
2022-09-12T06:27:12.444Z,19.37
2022-09-12T06:29:41.716Z,19.33
2022-09-12T06:32:12.087Z,19.26
2022-09-12T06:34:41.480Z,19.15
2022-09-12T06:37:10.836Z,19.19
2022-09-12T06:39:40.367Z,19.16
2022-09-12T06:42:09.609Z,19.02
2022-09-12T06:44:38.990Z,19.02
2022-09-12T06:47:10.483Z,19.06
2022-09-12T06:49:39.714Z,19.15
2022-09-12T06:52:08.800Z,19.13
2022-09-12T06:54:38.018Z,19.00
2022-09-12T06:57:08.185Z,18.94
2022-09-12T06:59:37.369Z,18.88
2022-09-12T07:02:06.561Z,18.96
2022-09-12T07:04:37.587Z,18.98
2022-09-12T07:07:07.378Z,18.88
2022-09-12T07:09:36.630Z,18.85
2022-09-12T07:12:07.132Z,19.08
2022-09-12T07:14:36.806Z,19.00
2022-09-12T07:17:08.263Z,18.98
2022-09-12T07:19:38.335Z,19.09
2022-09-12T07:22:07.716Z,18.97
2022-09-12T07:24:36.814Z,18.86
2022-09-12T07:27:05.989Z,19.12
2022-09-12T07:29:37.750Z,19.08
2022-09-12T07:32:08.048Z,19.27
2022-09-12T07:34:37.729Z,19.12
2022-09-12T07:37:06.962Z,19.16
2022-09-12T07:39:36.368Z,19.20
2022-09-12T07:42:05.841Z,19.20
2022-09-12T07:44:35.086Z,18.87
2022-09-12T07:47:04.739Z,18.89
2022-09-12T07:49:34.073Z,19.17
2022-09-12T07:52:03.539Z,18.73
2022-09-12T07:54:34.325Z,18.92
2022-09-12T07:57:04.461Z,19.06
2022-09-12T07:59:51.887Z,18.98
2022-09-12T08:02:21.975Z,19.13
2022-09-12T08:04:52.317Z,19.13
2022-09-12T08:07:22.040Z,18.75
2022-09-12T08:09:51.242Z,18.87
2022-09-12T08:12:21.271Z,18.79
2022-09-12T08:14:50.561Z,18.88
2022-09-12T08:17:19.780Z,18.66
2022-09-12T08:19:49.366Z,18.65
2022-09-12T08:22:22.893Z,18.46
2022-09-12T08:24:55.019Z,18.74
2022-09-12T08:27:24.308Z,18.88
2022-09-12T08:29:54.590Z,18.89
2022-09-12T08:32:23.800Z,18.54
2022-09-12T08:34:52.868Z,18.71
2022-09-12T08:37:22.277Z,18.76
2022-09-12T08:39:52.265Z,18.41
2022-09-12T08:42:44.939Z,18.41
2022-09-12T08:45:21.641Z,18.70
2022-09-12T08:47:51.833Z,18.86
2022-09-12T08:50:23.483Z,18.70
2022-09-12T08:53:14.350Z,18.63
2022-09-12T08:55:59.731Z,18.76
2022-09-12T08:58:30.535Z,18.52
2022-09-12T09:01:15.342Z,18.68
2022-09-12T09:04:06.761Z,18.68
2022-09-12T09:06:55.815Z,18.20
2022-09-12T09:10:16.832Z,18.33
2022-09-12T09:12:58.949Z,18.26
2022-09-12T09:16:00.333Z,18.22
2022-09-12T09:18:36.664Z,18.12
2022-09-12T09:21:25.569Z,18.24
2022-09-12T09:24:03.435Z,18.32
2022-09-12T09:27:11.054Z,18.45
2022-09-12T09:29:53.235Z,18.36
2022-09-12T09:32:34.796Z,18.23
2022-09-12T09:35:32.140Z,18.15
2022-09-12T09:38:46.953Z,18.20
2022-09-12T09:41:37.195Z,18.39
2022-09-12T09:46:36.096Z,18.16
2022-09-12T09:49:08.076Z,18.07
2022-09-12T09:51:40.542Z,17.83
2022-09-12T09:54:24.486Z,17.95
2022-09-12T09:56:53.725Z,18.10
2022-09-12T09:59:37.164Z,18.13
2022-09-12T10:02:15.494Z,18.12
2022-09-12T10:04:56.782Z,18.28
2022-09-12T10:07:27.467Z,18.16
2022-09-12T10:10:29.380Z,18.18
2022-09-12T10:13:24.757Z,18.05
2022-09-12T10:16:03.579Z,18.07
2022-09-12T10:18:43.223Z,18.09
2022-09-12T10:21:41.500Z,18.14
2022-09-12T10:24:30.332Z,18.08
2022-09-12T10:27:15.538Z,18.12
2022-09-12T10:29:50.926Z,18.19
2022-09-12T10:32:31.037Z,18.11
2022-09-12T10:35:07.230Z,18.10
2022-09-12T10:37:41.537Z,18.13
2022-09-12T10:40:29.774Z,18.15
2022-09-12T10:43:01.448Z,18.17
2022-09-12T10:45:36.833Z,18.11
2022-09-12T10:48:27.898Z,18.13
2022-09-12T10:51:00.385Z,18.14
2022-09-12T10:53:49.858Z,18.24
2022-09-12T10:57:01.909Z,18.13
2022-09-12T10:59:54.368Z,18.18
2022-09-12T11:02:48.486Z,18.12
2022-09-12T11:05:33.017Z,18.10
2022-09-12T11:08:13.884Z,18.22
2022-09-12T11:11:15.496Z,18.03
2022-09-12T11:14:39.934Z,18.22
2022-09-12T11:17:47.219Z,18.06
2022-09-12T11:20:55.013Z,18.22
2022-09-12T11:23:36.447Z,18.03
2022-09-12T11:26:18.200Z,18.13
2022-09-12T11:29:31.712Z,18.29
2022-09-12T11:32:22.829Z,18.31
2022-09-12T11:35:17.535Z,18.45
2022-09-12T11:38:25.926Z,18.36
2022-09-12T11:41:00.598Z,18.30
2022-09-12T11:43:52.716Z,18.28
2022-09-12T11:46:40.189Z,18.30
2022-09-12T11:49:14.787Z,18.27
2022-09-12T11:52:22.127Z,18.22
2022-09-12T11:55:18.047Z,18.14
2022-09-12T11:58:08.843Z,18.04
2022-09-12T12:00:45.849Z,17.95
2022-09-12T12:03:38.522Z,18.20
2022-09-12T12:06:22.505Z,18.08
2022-09-12T12:08:51.917Z,18.10
2022-09-12T12:11:30.182Z,18.17
2022-09-12T12:14:22.933Z,18.20
2022-09-12T12:16:52.545Z,18.12
2022-09-12T12:19:40.007Z,18.14
2022-09-12T12:22:18.202Z,18.15
2022-09-12T12:25:04.296Z,18.12
2022-09-12T12:27:56.456Z,18.07
2022-09-12T12:30:31.907Z,18.11
2022-09-12T12:33:09.608Z,18.19
2022-09-12T12:35:47.212Z,17.94
2022-09-12T12:38:31.036Z,17.94
2022-09-12T12:41:18.547Z,17.76
2022-09-12T12:43:58.525Z,18.01
2022-09-12T12:46:30.458Z,17.84
2022-09-12T12:49:25.837Z,17.94
2022-09-12T12:51:57.648Z,18.02
2022-09-12T12:54:35.179Z,17.98
2022-09-12T12:57:17.266Z,17.58
2022-09-12T12:59:57.586Z,17.89
2022-09-12T13:02:38.421Z,17.95
2022-09-12T13:05:23.038Z,17.94
2022-09-12T13:08:08.305Z,17.87
2022-09-12T13:10:38.739Z,17.62
2022-09-12T13:13:10.979Z,17.67
2022-09-12T13:15:40.641Z,17.92
2022-09-12T13:18:16.722Z,17.93
2022-09-12T13:20:56.861Z,17.85
2022-09-12T13:23:33.634Z,17.87
2022-09-12T13:26:04.319Z,17.73
2022-09-12T13:28:33.763Z,17.73
2022-09-12T13:31:27.128Z,17.77
2022-09-12T13:34:00.862Z,17.70
2022-09-12T13:36:56.386Z,17.78
2022-09-12T13:39:59.754Z,17.67
2022-09-12T13:42:43.530Z,17.13
2022-09-12T13:45:28.728Z,17.35
2022-09-12T13:48:02.885Z,17.08
2022-09-12T13:50:59.169Z,17.64
2022-09-12T13:53:33.378Z,17.68
2022-09-12T13:56:02.915Z,17.71
2022-09-12T13:58:36.125Z,17.64
2022-09-12T14:01:14.982Z,17.54
2022-09-12T14:04:14.685Z,17.49
2022-09-12T14:06:50.995Z,17.37
2022-09-12T14:09:34.620Z,17.52
2022-09-12T14:12:04.263Z,17.52
2022-09-12T14:14:47.140Z,17.39
2022-09-12T14:17:23.027Z,17.41
2022-09-12T14:19:53.747Z,17.59
2022-09-12T14:22:23.591Z,17.41
2022-09-12T14:24:54.795Z,17.44
2022-09-12T14:27:31.104Z,17.53
2022-09-12T14:30:35.694Z,17.50
2022-09-12T14:33:13.668Z,17.44
2022-09-12T14:35:45.092Z,17.63
2022-09-12T14:38:17.339Z,17.42
2022-09-12T14:40:51.606Z,17.46
2022-09-12T14:43:28.250Z,17.39
2022-09-12T14:46:16.174Z,17.38
2022-09-12T14:48:51.024Z,17.55
2022-09-12T14:51:26.168Z,17.52
2022-09-12T14:53:56.015Z,17.48
2022-09-12T14:56:43.389Z,17.50
2022-09-12T14:59:32.190Z,17.67
2022-09-12T15:03:01.418Z,17.45
2022-09-12T15:10:12.305Z,17.34
2022-09-12T15:12:50.918Z,17.58
2022-09-12T15:15:43.139Z,17.70
2022-09-12T15:18:14.777Z,17.64
2022-09-12T15:20:46.793Z,17.60
2022-09-12T15:23:34.039Z,17.72
2022-09-12T15:26:04.881Z,17.49
2022-09-12T15:28:40.614Z,17.63
2022-09-12T15:31:32.219Z,17.71
2022-09-12T15:34:20.443Z,17.63
2022-09-12T15:40:56.752Z,17.56
2022-09-12T15:43:27.127Z,18.05
2022-09-12T15:45:56.505Z,18.18
2022-09-12T15:48:25.639Z,17.66
2022-09-12T15:50:55.194Z,17.97
2022-09-12T15:53:24.560Z,18.18
2022-09-12T15:55:53.782Z,18.15
2022-09-12T15:58:23.428Z,17.99
2022-09-12T16:00:52.694Z,18.18
2022-09-12T16:03:31.840Z,18.28
2022-09-12T16:06:04.118Z,18.17
2022-09-12T16:08:33.881Z,18.30
2022-09-12T16:11:27.031Z,17.99
2022-09-12T16:13:57.694Z,18.31
2022-09-12T16:16:27.175Z,18.42
2022-09-12T16:18:56.512Z,18.48
2022-09-12T16:21:27.066Z,18.34
2022-09-12T16:23:56.378Z,18.48
2022-09-12T16:26:25.424Z,18.61
2022-09-12T16:29:01.631Z,18.50
2022-09-12T16:31:31.914Z,18.49
2022-09-12T16:34:01.209Z,18.40
2022-09-12T16:36:30.970Z,18.54
2022-09-12T16:39:00.339Z,18.64
2022-09-12T16:41:29.704Z,18.48
2022-09-12T16:44:02.610Z,18.53
2022-09-12T16:46:31.860Z,18.59
2022-09-12T16:49:02.182Z,18.64
2022-09-12T16:51:38.867Z,18.45
2022-09-12T16:54:08.198Z,18.47
2022-09-12T16:56:37.281Z,18.39
2022-09-12T16:59:07.546Z,18.49
2022-09-12T17:01:37.254Z,18.50
2022-09-12T17:04:06.628Z,18.57
2022-09-12T17:06:36.034Z,18.70
2022-09-12T17:09:05.810Z,18.51
2022-09-12T17:11:40.191Z,18.70
2022-09-12T17:14:09.948Z,18.73
2022-09-12T17:16:49.254Z,18.82
2022-09-12T17:19:25.347Z,18.82
2022-09-12T17:21:55.262Z,18.69
2022-09-12T17:25:01.703Z,18.62
2022-09-12T17:27:33.816Z,18.54
2022-09-12T17:30:11.300Z,18.71
2022-09-12T17:32:42.581Z,18.74
2022-09-12T17:35:15.734Z,18.90
2022-09-12T17:37:47.449Z,19.01
2022-09-12T17:40:48.814Z,18.97
2022-09-12T17:43:29.113Z,19.17
2022-09-12T17:45:59.831Z,19.28
2022-09-12T17:48:46.384Z,19.34
2022-09-12T17:51:48.782Z,19.61
2022-09-12T17:54:26.474Z,19.24
2022-09-12T17:56:57.153Z,19.34
2022-09-12T17:59:26.659Z,19.70
2022-09-12T18:02:15.218Z,19.78
2022-09-12T18:04:49.260Z,19.56
2022-09-12T18:07:29.468Z,19.87
2022-09-12T18:09:59.530Z,19.58
2022-09-12T18:12:28.952Z,19.27
2022-09-12T18:14:58.100Z,19.35
2022-09-12T18:17:28.336Z,19.71
2022-09-12T18:19:57.900Z,19.62
2022-09-12T18:22:27.043Z,19.30
2022-09-12T18:24:56.243Z,19.42
2022-09-12T18:27:25.402Z,19.60
2022-09-12T18:30:17.122Z,19.69
2022-09-12T18:32:53.426Z,19.78
2022-09-12T18:35:28.238Z,19.52
2022-09-12T18:37:57.947Z,19.80
2022-09-12T18:40:27.452Z,19.62
2022-09-12T18:42:57.313Z,19.89
2022-09-12T18:45:33.115Z,20.11
2022-09-12T18:48:06.948Z,19.91
2022-09-12T18:50:36.158Z,19.89
2022-09-12T18:53:05.374Z,19.93
2022-09-12T18:55:37.948Z,19.99
2022-09-12T18:58:10.378Z,20.24
2022-09-12T19:00:41.891Z,20.30
2022-09-12T19:03:11.518Z,20.13
2022-09-12T19:05:40.949Z,20.64
2022-09-12T19:08:10.343Z,20.68
2022-09-12T19:10:39.898Z,20.18
2022-09-12T19:13:11.861Z,20.57
2022-09-12T19:15:42.946Z,20.86
2022-09-12T19:18:16.750Z,21.05
2022-09-12T19:20:53.124Z,21.12
2022-09-12T19:23:22.119Z,21.38
2022-09-12T19:25:59.521Z,20.63
2022-09-12T19:28:29.789Z,21.30
2022-09-12T19:31:05.042Z,21.23
2022-09-12T19:33:34.762Z,21.07
2022-09-12T19:36:17.508Z,21.03
2022-09-12T19:38:59.638Z,21.34
2022-09-12T19:41:28.970Z,21.42
2022-09-12T19:43:58.868Z,21.14
2022-09-12T19:46:28.238Z,21.53
2022-09-12T19:48:57.576Z,21.40
2022-09-12T19:51:26.882Z,21.49
2022-09-12T19:53:56.278Z,21.64
2022-09-12T19:56:25.371Z,21.50
2022-09-12T19:58:56.718Z,22.06
2022-09-12T20:01:31.875Z,21.55
2022-09-12T20:04:07.513Z,21.95
2022-09-12T20:06:37.553Z,21.69
2022-09-12T20:09:09.998Z,21.58
2022-09-12T20:23:42.448Z,22.75
2022-09-12T20:26:25.824Z,22.58
2022-09-12T20:29:02.163Z,22.74
2022-09-12T20:31:35.470Z,22.68
2022-09-12T20:34:05.852Z,22.89
2022-09-12T20:36:35.347Z,22.68
2022-09-12T20:39:04.671Z,22.58
2022-09-12T20:41:37.125Z,23.31
2022-09-12T20:44:06.478Z,23.46
2022-09-12T20:46:35.927Z,22.87
2022-09-12T20:49:06.166Z,23.57
2022-09-12T20:51:35.840Z,23.41
2022-09-12T20:54:08.997Z,23.61
2022-09-12T20:56:39.270Z,23.18
2022-09-12T20:59:20.824Z,23.36
2022-09-12T21:01:56.458Z,23.08
2022-09-12T21:04:26.188Z,22.92
2022-09-12T21:06:55.606Z,22.70
2022-09-12T21:09:24.977Z,22.99
2022-09-12T21:11:54.467Z,24.05
2022-09-12T21:14:23.703Z,23.26
2022-09-12T21:16:53.346Z,22.89
2022-09-12T21:19:47.705Z,23.03
2022-09-12T21:22:21.158Z,22.89
2022-09-12T21:24:50.691Z,22.75
2022-09-12T21:27:21.291Z,23.25
2022-09-12T21:29:51.454Z,23.81
2022-09-12T21:32:22.296Z,24.12
2022-09-12T21:34:51.535Z,23.68
2022-09-12T21:37:23.842Z,23.69
2022-09-12T21:39:53.030Z,24.21
2022-09-12T21:42:22.176Z,24.39
2022-09-12T21:44:53.012Z,25.00
2022-09-12T21:47:22.127Z,24.64
2022-09-12T21:49:53.677Z,24.63
2022-09-12T21:52:23.020Z,24.95
2022-09-12T21:54:52.164Z,24.76
2022-09-12T21:57:23.025Z,24.81
2022-09-12T21:59:52.395Z,24.48
2022-09-12T22:02:23.972Z,24.56
2022-09-12T22:04:53.369Z,25.43
2022-09-12T22:07:24.254Z,25.81
2022-09-12T22:09:53.843Z,24.82
2022-09-12T22:12:23.375Z,25.53
2022-09-12T22:14:52.759Z,25.19
2022-09-12T22:17:25.392Z,24.84
2022-09-12T22:19:54.654Z,24.89
2022-09-12T22:22:42.961Z,24.27
2022-09-12T22:25:15.045Z,24.63
2022-09-12T22:27:44.391Z,24.42
2022-09-12T22:30:13.973Z,24.02
2022-09-12T22:32:43.215Z,23.87
2022-09-12T22:35:12.492Z,24.72
2022-09-12T22:37:41.677Z,25.23
2022-09-12T22:40:14.432Z,24.94
2022-09-12T22:42:43.682Z,25.37
2022-09-12T22:45:13.486Z,24.64
2022-09-12T22:47:42.750Z,24.79
2022-09-12T22:50:11.883Z,24.21
2022-09-12T22:52:41.504Z,24.40
2022-09-12T22:55:10.859Z,24.28
2022-09-12T22:57:40.642Z,24.56
2022-09-12T23:00:14.135Z,25.02
2022-09-12T23:02:44.398Z,25.22
2022-09-12T23:05:14.079Z,25.42
2022-09-12T23:07:45.912Z,25.57
2022-09-12T23:10:18.129Z,25.79
2022-09-12T23:12:47.458Z,25.15
2022-09-12T23:15:16.711Z,24.72
2022-09-12T23:17:46.775Z,24.81
2022-09-12T23:20:16.102Z,25.66
2022-09-12T23:22:45.250Z,24.80
2022-09-12T23:25:14.717Z,25.19
2022-09-12T23:27:44.207Z,25.91
2022-09-12T23:30:21.346Z,25.52
2022-09-12T23:32:50.727Z,25.19
2022-09-12T23:35:24.706Z,24.95
2022-09-12T23:37:56.487Z,24.54
2022-09-12T23:40:28.735Z,24.52
2022-09-12T23:42:57.981Z,24.93
2022-09-12T23:45:27.579Z,25.39
2022-09-12T23:47:56.887Z,25.85
2022-09-12T23:50:26.269Z,25.92
2022-09-12T23:52:58.457Z,25.61
2022-09-12T23:55:27.990Z,25.37
2022-09-12T23:57:57.081Z,25.04
